Time;durP1;ratioP1;P1;durP2;ratioP2;P2;SDS_P1;SDS_P2;PMS_P1;PMS_P2;Temp;Humidity;BMP_temperature;BMP_pressure;BME280_temperature;BME280_humidity;BME280_pressure;Samples;Min_cycle;Max_cycle;Signal;HPM_P1;HPM_P2
2023/12/31 00:01:52;;;;;;;1.80;1.70;;;10.30;99.90;;;;;;5136144;27;20481;-67
2023/12/31 00:04:18;;;;;;;2.70;2.00;;;10.30;99.90;;;;;;5139727;27;20445;-67
2023/12/31 00:06:45;;;;;;;1.53;1.30;;;10.20;99.90;;;;;;5139707;27;20449;-67
2023/12/31 00:09:12;;;;;;;1.50;1.33;;;10.20;99.90;;;;;;5138985;27;20445;-68
2023/12/31 00:11:39;;;;;;;2.87;1.60;;;10.10;99.90;;;;;;5138481;27;20931;-67
2023/12/31 00:14:05;;;;;;;1.77;1.33;;;10.10;99.90;;;;;;5138274;27;20450;-67
2023/12/31 00:16:33;;;;;;;3.20;1.60;;;10.10;99.90;;;;;;5138401;27;20445;-67
2023/12/31 00:19:02;;;;;;;1.60;1.27;;;10.10;99.90;;;;;;5138031;27;20438;-67
2023/12/31 00:21:29;;;;;;;1.33;1.23;;;10.10;99.90;;;;;;5137950;27;20473;-67
2023/12/31 00:23:55;;;;;;;1.93;1.40;;;10.10;99.90;;;;;;5137962;27;20849;-67
2023/12/31 00:26:22;;;;;;;1.47;1.30;;;10.00;99.90;;;;;;5138034;27;20935;-67
2023/12/31 00:28:49;;;;;;;1.23;1.13;;;10.00;99.90;;;;;;5137632;27;20927;-67
2023/12/31 00:31:15;;;;;;;1.90;1.00;;;10.00;99.90;;;;;;5138367;27;20474;-67
2023/12/31 00:33:42;;;;;;;1.43;1.33;;;10.00;99.90;;;;;;5119680;27;20466;-67
2023/12/31 00:36:10;;;;;;;1.97;1.40;;;10.10;99.90;;;;;;5138024;27;20442;-67
2023/12/31 00:38:37;;;;;;;2.50;1.20;;;10.10;99.90;;;;;;5137891;27;20433;-67
2023/12/31 00:41:04;;;;;;;1.20;1.10;;;10.10;99.90;;;;;;5137531;27;20486;-67
2023/12/31 00:43:31;;;;;;;1.33;1.23;;;10.10;99.90;;;;;;5138071;27;20449;-67
2023/12/31 00:45:57;;;;;;;2.53;2.00;;;10.10;99.90;;;;;;5137765;27;20434;-67
2023/12/31 00:48:24;;;;;;;3.37;1.83;;;10.10;99.90;;;;;;5137428;27;20450;-67
2023/12/31 00:50:51;;;;;;;1.63;1.20;;;10.20;99.90;;;;;;5137496;27;20454;-67
2023/12/31 00:53:19;;;;;;;1.60;1.50;;;10.10;99.90;;;;;;5137458;27;20438;-67
2023/12/31 00:55:45;;;;;;;1.67;1.50;;;10.10;99.90;;;;;;5138071;27;20442;-67
2023/12/31 00:58:12;;;;;;;2.80;1.57;;;10.20;99.90;;;;;;5136654;27;20438;-66
2023/12/31 01:00:39;;;;;;;2.20;1.90;;;10.20;99.90;;;;;;5136518;27;20828;-67
2023/12/31 01:03:06;;;;;;;2.43;1.80;;;10.20;99.90;;;;;;5137273;27;20434;-67
2023/12/31 01:05:32;;;;;;;1.73;1.63;;;10.20;99.90;;;;;;5136961;27;20911;-67
2023/12/31 01:07:59;;;;;;;1.37;1.27;;;10.20;99.90;;;;;;5137308;27;20790;-67
2023/12/31 01:10:27;;;;;;;1.90;1.80;;;10.20;99.90;;;;;;5136876;27;20457;-67
2023/12/31 01:12:54;;;;;;;1.30;1.20;;;10.20;99.90;;;;;;5136835;27;20442;-67
2023/12/31 01:15:22;;;;;;;2.77;1.80;;;10.20;99.90;;;;;;5136057;27;20465;-67
2023/12/31 01:17:48;;;;;;;2.30;1.90;;;10.20;99.90;;;;;;5136430;27;20950;-67
2023/12/31 01:20:15;;;;;;;3.30;1.83;;;10.30;99.90;;;;;;5136790;27;20462;-67
2023/12/31 01:22:43;;;;;;;2.70;1.47;;;10.30;99.90;;;;;;5136598;27;20990;-67
2023/12/31 01:25:10;;;;;;;1.87;1.60;;;10.40;99.90;;;;;;5136832;27;20487;-67
2023/12/31 01:27:38;;;;;;;2.10;1.87;;;10.40;99.90;;;;;;5136177;27;20445;-67
2023/12/31 01:30:06;;;;;;;3.60;1.87;;;10.40;99.90;;;;;;5136810;27;20457;-68
2023/12/31 01:32:33;;;;;;;3.10;1.70;;;10.30;99.90;;;;;;5136361;27;20457;-67
2023/12/31 01:35:01;;;;;;;1.47;1.30;;;10.30;99.90;;;;;;5136331;27;20437;-67
2023/12/31 01:37:28;;;;;;;1.50;1.40;;;10.30;99.90;;;;;;5136315;27;20450;-67
2023/12/31 01:39:55;;;;;;;3.07;1.93;;;10.30;99.90;;;;;;5135892;27;20959;-67
2023/12/31 01:42:22;;;;;;;3.03;1.70;;;10.30;99.90;;;;;;5136007;27;20469;-67
2023/12/31 01:44:50;;;;;;;2.97;1.67;;;10.30;99.90;;;;;;5118103;27;20857;-67
2023/12/31 01:47:18;;;;;;;3.53;1.60;;;10.20;99.90;;;;;;5136148;27;20438;-67
2023/12/31 01:49:45;;;;;;;3.27;1.70;;;10.20;99.90;;;;;;5136182;27;20464;-67
2023/12/31 01:52:14;;;;;;;1.50;1.27;;;10.20;99.90;;;;;;5136181;27;20436;-67
2023/12/31 01:54:42;;;;;;;1.90;1.60;;;10.20;99.90;;;;;;5135998;27;20442;-67
2023/12/31 01:57:12;;;;;;;2.37;1.80;;;10.20;99.90;;;;;;5135913;27;20442;-67
2023/12/31 01:59:39;;;;;;;1.70;1.60;;;10.20;99.90;;;;;;5136894;27;20454;-67
2023/12/31 02:02:07;;;;;;;1.60;1.13;;;10.20;99.90;;;;;;5135864;27;20884;-67
2023/12/31 02:04:34;;;;;;;1.60;1.30;;;10.20;99.90;;;;;;5139603;27;20437;-66
2023/12/31 02:07:01;;;;;;;1.20;1.10;;;10.20;99.90;;;;;;5147220;27;20459;-66
2023/12/31 02:09:28;;;;;;;2.20;1.53;;;10.10;99.90;;;;;;5141796;27;20473;-67
2023/12/31 02:11:56;;;;;;;1.33;1.23;;;10.10;99.90;;;;;;5140545;27;20449;-67
2023/12/31 02:14:22;;;;;;;1.97;1.40;;;10.10;99.90;;;;;;5137111;27;20450;-67
2023/12/31 02:16:49;;;;;;;2.60;1.20;;;10.10;99.90;;;;;;5118311;27;20826;-67
2023/12/31 02:19:17;;;;;;;1.03;1.00;;;10.10;99.90;;;;;;5136271;27;20462;-67
2023/12/31 02:21:44;;;;;;;2.60;1.27;;;10.10;99.90;;;;;;5136043;27;20470;-67
2023/12/31 02:24:14;;;;;;;3.33;1.40;;;10.10;99.90;;;;;;5136113;27;20841;-67
2023/12/31 02:26:42;;;;;;;1.43;1.10;;;10.10;99.90;;;;;;5135767;27;20457;-67
2023/12/31 02:29:09;;;;;;;1.63;0.93;;;10.10;99.90;;;;;;5135673;27;20449;-67
2023/12/31 02:31:36;;;;;;;1.30;1.20;;;10.10;99.90;;;;;;5135248;27;20918;-67
2023/12/31 02:34:03;;;;;;;1.77;1.33;;;10.10;99.90;;;;;;5135942;27;20449;-67
2023/12/31 02:36:30;;;;;;;1.77;1.13;;;10.20;99.90;;;;;;5118003;27;20773;-67
2023/12/31 02:38:57;;;;;;;2.00;1.50;;;10.20;99.90;;;;;;5135129;27;20438;-67
2023/12/31 02:41:24;;;;;;;1.90;1.33;;;10.20;99.90;;;;;;5117049;27;20481;-67
2023/12/31 02:43:55;;;;;;;2.23;1.53;;;10.20;99.90;;;;;;5117199;27;20511;-67
2023/12/31 02:46:22;;;;;;;1.73;1.17;;;10.20;99.90;;;;;;5135032;27;20862;-67
2023/12/31 02:48:48;;;;;;;3.33;1.57;;;10.30;99.90;;;;;;5135177;27;20445;-67
2023/12/31 02:51:15;;;;;;;1.70;1.60;;;10.30;99.90;;;;;;5135078;27;20470;-67
2023/12/31 02:53:42;;;;;;;2.83;1.57;;;10.30;99.90;;;;;;5135272;27;20449;-67
2023/12/31 02:56:08;;;;;;;1.80;1.60;;;10.30;99.90;;;;;;5134872;27;20954;-67
2023/12/31 02:58:35;;;;;;;2.47;1.50;;;10.30;99.90;;;;;;5134943;27;20450;-67
2023/12/31 03:01:03;;;;;;;3.50;1.70;;;10.30;99.90;;;;;;5134794;27;20454;-67
2023/12/31 03:03:30;;;;;;;1.30;1.20;;;10.40;99.90;;;;;;5134594;27;20442;-67
2023/12/31 03:05:57;;;;;;;3.43;2.10;;;10.30;99.90;;;;;;5134573;27;20954;-67
2023/12/31 03:08:24;;;;;;;3.30;2.10;;;10.30;99.90;;;;;;5134893;27;20438;-67
2023/12/31 03:10:50;;;;;;;2.40;1.67;;;10.30;99.90;;;;;;5134517;27;20838;-67
2023/12/31 03:13:17;;;;;;;1.87;1.50;;;10.30;99.90;;;;;;5134856;27;20449;-67
2023/12/31 03:15:44;;;;;;;2.03;1.60;;;10.40;99.90;;;;;;5135006;27;20454;-67
2023/12/31 03:18:12;;;;;;;1.60;1.50;;;10.40;99.90;;;;;;5134517;27;20952;-67
2023/12/31 03:20:39;;;;;;;2.07;1.87;;;10.40;99.90;;;;;;5134430;27;20458;-67
2023/12/31 03:23:08;;;;;;;3.23;1.60;;;10.50;99.90;;;;;;5134387;27;21025;-67
2023/12/31 03:25:35;;;;;;;2.10;1.60;;;10.50;99.90;;;;;;5134787;28;20473;-67
2023/12/31 03:28:01;;;;;;;1.97;1.87;;;10.50;99.90;;;;;;5134735;28;20445;-67
2023/12/31 03:30:28;;;;;;;4.03;2.40;;;10.50;99.90;;;;;;5134659;28;20458;-67
2023/12/31 03:32:55;;;;;;;2.10;1.80;;;10.60;99.90;;;;;;5134597;28;20489;-67
2023/12/31 03:35:23;;;;;;;2.57;1.87;;;10.60;99.90;;;;;;5134342;28;20445;-67
2023/12/31 03:37:52;;;;;;;3.63;1.90;;;10.60;99.90;;;;;;5136991;27;20515;-67
2023/12/31 03:40:19;;;;;;;2.33;2.00;;;10.60;99.90;;;;;;5138620;27;20461;-67
2023/12/31 03:42:45;;;;;;;2.63;2.40;;;10.60;99.90;;;;;;5138378;27;20476;-67
2023/12/31 03:45:12;;;;;;;3.23;2.43;;;10.60;99.90;;;;;;5138915;27;20442;-67
2023/12/31 03:47:39;;;;;;;3.27;2.40;;;10.70;99.90;;;;;;5138679;27;20442;-67
2023/12/31 03:50:07;;;;;;;3.13;2.73;;;10.60;99.90;;;;;;5138529;27;20462;-67
2023/12/31 03:52:35;;;;;;;3.83;2.30;;;10.60;99.90;;;;;;5138499;27;20434;-67
2023/12/31 03:55:02;;;;;;;4.03;3.00;;;10.50;99.90;;;;;;5138145;27;20449;-67
2023/12/31 03:57:28;;;;;;;4.40;2.80;;;10.50;99.90;;;;;;5138592;27;20430;-67
2023/12/31 03:59:55;;;;;;;3.60;2.60;;;10.40;99.90;;;;;;5138041;27;20830;-67
2023/12/31 04:02:22;;;;;;;3.37;3.07;;;10.40;99.90;;;;;;5138432;27;20469;-67
2023/12/31 04:04:49;;;;;;;3.80;3.13;;;10.40;99.90;;;;;;5119715;27;20529;-67
2023/12/31 04:07:15;;;;;;;4.13;3.30;;;10.30;99.90;;;;;;5138407;27;20449;-67
2023/12/31 04:09:44;;;;;;;5.37;3.00;;;10.30;99.90;;;;;;5138191;27;20458;-67
2023/12/31 04:12:11;;;;;;;8.43;2.73;;;10.30;99.90;;;;;;5137957;27;20465;-67
2023/12/31 04:14:38;;;;;;;3.37;2.67;;;10.30;99.90;;;;;;5138036;27;20519;-67
2023/12/31 04:17:04;;;;;;;5.20;2.97;;;10.30;99.90;;;;;;5138041;27;20441;-67
2023/12/31 04:19:31;;;;;;;3.40;3.10;;;10.30;99.90;;;;;;5137667;27;20971;-67
2023/12/31 04:21:58;;;;;;;2.90;2.20;;;10.30;99.90;;;;;;5146847;27;20478;-66
2023/12/31 04:24:25;;;;;;;3.23;2.93;;;10.20;99.90;;;;;;5145658;27;20442;-67
2023/12/31 04:26:53;;;;;;;3.93;2.80;;;10.20;99.90;;;;;;5143829;27;20445;-67
2023/12/31 04:29:20;;;;;;;3.10;2.80;;;10.10;99.90;;;;;;5140026;27;20458;-67
2023/12/31 04:31:48;;;;;;;3.73;3.10;;;10.10;99.90;;;;;;5138295;27;20441;-67
2023/12/31 04:34:14;;;;;;;3.27;2.97;;;10.10;99.90;;;;;;5138624;27;20474;-67
2023/12/31 04:36:43;;;;;;;3.90;3.20;;;10.10;99.90;;;;;;5138985;27;20453;-67
2023/12/31 04:39:10;;;;;;;3.03;2.73;;;10.20;99.90;;;;;;5138246;27;20472;-67
2023/12/31 04:41:38;;;;;;;3.03;2.80;;;10.20;99.90;;;;;;5138343;27;20440;-67
2023/12/31 04:44:06;;;;;;;2.90;2.50;;;10.20;99.90;;;;;;5138237;27;20449;-67
2023/12/31 04:46:33;;;;;;;3.10;2.77;;;10.20;99.90;;;;;;5138087;27;20444;-67
2023/12/31 04:49:01;;;;;;;3.40;3.10;;;10.30;99.90;;;;;;5137681;27;20442;-67
2023/12/31 04:51:29;;;;;;;7.47;3.53;;;10.30;99.90;;;;;;5137674;27;20442;-67
2023/12/31 04:53:57;;;;;;;3.53;2.80;;;10.30;99.90;;;;;;5137839;27;20442;-67
2023/12/31 04:56:25;;;;;;;6.57;2.90;;;10.30;99.90;;;;;;5136987;27;20966;-67
2023/12/31 04:58:53;;;;;;;3.23;2.93;;;10.30;99.90;;;;;;5137087;27;20442;-67
2023/12/31 05:01:22;;;;;;;4.00;3.00;;;10.30;99.90;;;;;;5137419;27;20931;-67
2023/12/31 05:03:49;;;;;;;3.77;3.37;;;10.30;99.90;;;;;;5137353;27;20505;-67
2023/12/31 05:06:16;;;;;;;3.10;2.60;;;10.30;99.90;;;;;;5137309;27;20874;-67
2023/12/31 05:08:44;;;;;;;5.63;2.63;;;10.30;99.90;;;;;;5137273;27;20442;-67
2023/12/31 05:11:12;;;;;;;4.93;2.83;;;10.30;99.90;;;;;;5136632;27;20996;-67
2023/12/31 05:13:39;;;;;;;4.60;2.60;;;10.40;99.90;;;;;;5136952;27;20495;-67
2023/12/31 05:16:07;;;;;;;2.67;2.47;;;10.40;99.90;;;;;;5136974;27;20446;-67
2023/12/31 05:18:35;;;;;;;3.23;2.90;;;10.40;99.90;;;;;;5137222;27;20446;-67
2023/12/31 05:21:02;;;;;;;3.90;2.57;;;10.40;99.90;;;;;;5141749;27;20522;-67
2023/12/31 05:23:30;;;;;;;4.60;2.90;;;10.30;99.90;;;;;;5144837;27;20477;-67
2023/12/31 05:25:56;;;;;;;4.10;2.80;;;10.30;99.90;;;;;;5125400;27;20446;-68
2023/12/31 05:28:23;;;;;;;2.83;2.40;;;10.40;99.90;;;;;;5143065;27;20438;-67
2023/12/31 05:30:50;;;;;;;5.40;3.10;;;10.30;99.90;;;;;;5142113;27;20485;-70
2023/12/31 05:33:17;;;;;;;4.67;3.40;;;10.40;99.90;;;;;;5141959;27;20445;-67
2023/12/31 05:35:46;;;;;;;4.07;3.40;;;10.40;99.90;;;;;;5140713;27;20442;-67
2023/12/31 05:38:12;;;;;;;3.10;2.40;;;10.30;99.90;;;;;;5139721;27;20438;-67
2023/12/31 05:40:39;;;;;;;3.07;2.80;;;10.40;99.90;;;;;;5139446;27;20469;-67
2023/12/31 05:43:06;;;;;;;4.10;3.00;;;10.40;99.90;;;;;;5139412;27;20504;-67
2023/12/31 05:45:33;;;;;;;2.90;2.60;;;10.40;99.90;;;;;;5138496;27;20447;-67
2023/12/31 05:47:59;;;;;;;3.67;2.77;;;10.40;99.90;;;;;;5138810;27;20434;-67
2023/12/31 05:50:26;;;;;;;3.43;3.13;;;10.30;99.90;;;;;;5119726;27;20486;-67
2023/12/31 05:52:54;;;;;;;3.30;2.77;;;10.40;99.90;;;;;;5138639;27;20852;-68
2023/12/31 05:55:21;;;;;;;3.00;2.63;;;10.40;99.90;;;;;;5137286;27;20454;-67
2023/12/31 05:57:48;;;;;;;3.87;2.80;;;10.40;99.90;;;;;;5137790;27;20433;-67
2023/12/31 06:00:15;;;;;;;5.60;3.10;;;10.40;99.90;;;;;;5136725;27;20458;-67
2023/12/31 06:02:42;;;;;;;3.20;2.90;;;10.40;99.90;;;;;;5136932;27;20505;-67
2023/12/31 06:05:09;;;;;;;2.90;2.60;;;10.40;99.90;;;;;;5137150;27;20446;-67
2023/12/31 06:07:37;;;;;;;4.77;3.00;;;10.40;99.90;;;;;;5136422;27;20819;-67
2023/12/31 06:10:06;;;;;;;2.63;2.43;;;10.30;99.90;;;;;;5136211;27;20993;-67
2023/12/31 06:12:33;;;;;;;3.23;2.97;;;10.40;99.90;;;;;;5137352;27;20438;-67
2023/12/31 06:15:00;;;;;;;4.93;3.43;;;10.40;99.90;;;;;;5136476;27;20452;-67
2023/12/31 06:17:27;;;;;;;3.73;3.43;;;10.40;99.90;;;;;;5118514;27;20533;-67
2023/12/31 06:19:54;;;;;;;3.30;3.00;;;10.40;99.90;;;;;;5136436;27;20458;-67
2023/12/31 06:22:21;;;;;;;7.70;3.17;;;10.40;99.90;;;;;;5136210;27;20441;-67
2023/12/31 06:24:48;;;;;;;4.20;3.03;;;10.40;99.90;;;;;;5118038;27;20441;-67
2023/12/31 06:27:16;;;;;;;3.70;3.20;;;10.40;99.90;;;;;;5136522;27;20442;-67
2023/12/31 06:29:43;;;;;;;4.50;3.50;;;10.40;99.90;;;;;;5135964;27;20472;-67
2023/12/31 06:32:09;;;;;;;5.80;3.80;;;10.50;99.90;;;;;;5135888;27;20490;-67
2023/12/31 06:34:36;;;;;;;7.47;3.20;;;10.50;99.90;;;;;;5125960;27;20453;-67
2023/12/31 06:37:03;;;;;;;5.37;3.30;;;10.50;99.90;;;;;;5127286;27;20470;-66
2023/12/31 06:39:30;;;;;;;7.17;3.67;;;10.50;99.90;;;;;;5140887;27;20986;-67
2023/12/31 06:41:58;;;;;;;2.90;2.70;;;10.50;99.90;;;;;;5137671;27;20442;-67
2023/12/31 06:44:28;;;;;;;2.97;2.73;;;10.50;99.90;;;;;;5137114;27;20485;-67
2023/12/31 06:46:55;;;;;;;3.90;3.27;;;10.60;99.90;;;;;;5136550;27;20449;-67
2023/12/31 06:49:22;;;;;;;3.77;3.20;;;10.50;99.90;;;;;;5136367;27;20469;-68
2023/12/31 06:51:48;;;;;;;3.30;3.00;;;10.60;99.90;;;;;;5135941;27;20449;-67
2023/12/31 06:54:15;;;;;;;3.17;2.87;;;10.60;99.90;;;;;;5136428;27;20445;-67
2023/12/31 06:56:42;;;;;;;3.27;2.97;;;10.60;99.90;;;;;;5136295;27;20450;-67
2023/12/31 06:59:09;;;;;;;5.00;3.37;;;10.60;99.90;;;;;;5136167;27;20442;-67
2023/12/31 07:01:37;;;;;;;4.43;4.03;;;10.60;99.90;;;;;;5135648;27;20445;-67
2023/12/31 07:04:04;;;;;;;4.60;3.40;;;10.60;99.90;;;;;;5135166;27;20481;-67
2023/12/31 07:06:32;;;;;;;5.90;2.90;;;10.60;99.90;;;;;;5135076;27;20446;-67
2023/12/31 07:08:59;;;;;;;4.00;3.60;;;10.60;99.90;;;;;;5134961;27;20935;-67
2023/12/31 07:11:26;;;;;;;3.53;3.23;;;10.60;99.90;;;;;;5134823;27;20446;-67
2023/12/31 07:13:53;;;;;;;3.73;3.13;;;10.60;99.90;;;;;;5134961;27;20441;-67
2023/12/31 07:16:19;;;;;;;4.50;3.50;;;10.50;99.90;;;;;;5135051;27;20442;-67
2023/12/31 07:18:49;;;;;;;3.90;3.27;;;10.50;99.90;;;;;;5135049;27;20438;-67
2023/12/31 07:21:22;;;;;;;3.80;3.40;;;10.50;99.90;;;;;;5135288;27;20466;-67
2023/12/31 07:23:49;;;;;;;3.70;2.80;;;10.50;99.90;;;;;;5135407;27;20494;-67
2023/12/31 07:26:24;;;;;;;3.20;2.90;;;10.50;99.90;;;;;;5134992;27;20438;-67
2023/12/31 07:28:51;;;;;;;4.23;3.10;;;10.50;99.90;;;;;;5134105;28;20449;-67
2023/12/31 07:31:18;;;;;;;5.70;3.07;;;10.50;99.90;;;;;;5134724;28;20462;-67
2023/12/31 07:33:46;;;;;;;4.30;3.10;;;10.50;99.90;;;;;;5134427;28;20437;-67
2023/12/31 07:36:13;;;;;;;5.20;3.20;;;10.50;99.90;;;;;;5135263;28;20875;-67
2023/12/31 07:38:41;;;;;;;2.93;2.63;;;10.50;99.90;;;;;;5134837;28;20851;-67
2023/12/31 07:41:10;;;;;;;3.50;3.03;;;10.60;99.90;;;;;;5134747;28;20462;-67
2023/12/31 07:43:37;;;;;;;3.23;2.93;;;10.60;99.90;;;;;;5135748;28;20462;-67
2023/12/31 07:46:05;;;;;;;3.47;3.10;;;10.60;99.90;;;;;;5135325;28;20446;-67
2023/12/31 07:48:32;;;;;;;3.10;2.80;;;10.60;99.90;;;;;;5135074;28;20442;-67
2023/12/31 07:51:03;;;;;;;3.27;2.97;;;10.70;99.90;;;;;;5134804;28;20461;-67
2023/12/31 07:53:31;;;;;;;2.90;2.70;;;10.70;99.90;;;;;;5135161;28;20418;-68
2023/12/31 07:55:57;;;;;;;3.00;2.80;;;10.70;99.90;;;;;;5135277;28;20453;-67
2023/12/31 07:58:27;;;;;;;3.73;3.43;;;10.70;99.90;;;;;;5116609;28;20438;-67
2023/12/31 08:00:54;;;;;;;3.10;2.90;;;10.70;99.90;;;;;;5135615;28;21054;-67
2023/12/31 08:03:21;;;;;;;3.93;2.63;;;10.70;99.90;;;;;;5135530;28;20862;-67
2023/12/31 08:05:47;;;;;;;3.30;3.00;;;10.70;99.90;;;;;;5135131;28;20826;-67
2023/12/31 08:08:16;;;;;;;2.97;2.67;;;10.80;99.90;;;;;;5135746;28;20461;-67
2023/12/31 08:10:44;;;;;;;2.83;2.43;;;10.80;99.90;;;;;;5136425;28;20469;-67
2023/12/31 08:13:11;;;;;;;3.03;2.83;;;10.80;99.90;;;;;;5136354;28;20927;-67
2023/12/31 08:15:38;;;;;;;5.80;3.37;;;10.70;99.90;;;;;;5135257;28;20476;-67
2023/12/31 08:18:05;;;;;;;3.03;2.83;;;10.70;99.90;;;;;;5135046;28;20437;-67
2023/12/31 08:20:33;;;;;;;3.27;2.60;;;10.80;99.90;;;;;;5135242;28;20457;-67
2023/12/31 08:23:00;;;;;;;3.00;2.50;;;10.80;99.90;;;;;;5136382;27;20484;-67
2023/12/31 08:25:29;;;;;;;2.80;2.30;;;10.80;99.90;;;;;;5140249;27;20441;-67
2023/12/31 08:27:55;;;;;;;3.03;2.53;;;10.80;99.90;;;;;;5140261;27;20460;-67
2023/12/31 08:30:22;;;;;;;2.80;2.60;;;10.80;99.90;;;;;;5140268;27;20493;-67
2023/12/31 08:32:49;;;;;;;4.10;3.03;;;10.80;99.90;;;;;;5140117;27;20461;-68
2023/12/31 08:35:16;;;;;;;4.13;2.37;;;10.80;99.90;;;;;;5140712;27;20447;-67
2023/12/31 08:37:43;;;;;;;3.70;2.40;;;10.90;99.90;;;;;;5140456;27;20442;-67
2023/12/31 08:40:10;;;;;;;2.77;2.53;;;10.90;99.90;;;;;;5140296;27;20491;-67
2023/12/31 08:42:39;;;;;;;2.63;2.43;;;11.00;99.90;;;;;;5140770;27;20502;-67
2023/12/31 08:45:10;;;;;;;8.43;2.60;;;11.00;99.90;;;;;;5141439;27;20473;-67
2023/12/31 08:47:37;;;;;;;3.73;2.63;;;11.00;99.90;;;;;;5150789;27;20414;-66
2023/12/31 08:50:08;;;;;;;3.20;2.90;;;11.10;99.90;;;;;;5145670;27;20831;-67
2023/12/31 08:52:35;;;;;;;2.67;2.47;;;11.10;99.90;;;;;;5126783;27;20843;-67
2023/12/31 08:55:02;;;;;;;3.53;2.93;;;11.20;99.90;;;;;;5141277;27;20444;-68
2023/12/31 08:57:28;;;;;;;4.20;2.90;;;11.20;99.90;;;;;;5141527;27;20422;-67
2023/12/31 08:59:56;;;;;;;3.60;2.67;;;11.30;99.90;;;;;;5141261;27;20481;-67
2023/12/31 09:02:23;;;;;;;2.63;2.43;;;11.20;99.90;;;;;;5142002;27;20442;-67
2023/12/31 09:04:50;;;;;;;3.70;3.40;;;11.20;99.90;;;;;;5140461;27;20488;-67
2023/12/31 09:07:17;;;;;;;4.00;3.10;;;11.20;99.90;;;;;;5141145;27;20445;-67
2023/12/31 09:09:44;;;;;;;2.70;2.50;;;11.20;99.90;;;;;;5140376;27;20504;-67
2023/12/31 09:12:10;;;;;;;2.57;2.33;;;11.20;99.90;;;;;;5138476;27;20438;-67
2023/12/31 09:14:37;;;;;;;3.90;2.93;;;11.20;99.90;;;;;;5139217;27;20445;-67
2023/12/31 09:17:05;;;;;;;2.90;2.70;;;11.20;99.90;;;;;;5139725;27;20449;-67
2023/12/31 09:19:32;;;;;;;2.90;2.60;;;11.30;99.90;;;;;;5142100;27;20457;-67
2023/12/31 09:21:58;;;;;;;3.27;2.90;;;11.20;99.90;;;;;;5144420;27;20442;-67
2023/12/31 09:24:25;;;;;;;3.03;2.83;;;11.20;99.90;;;;;;5144082;27;20473;-67
2023/12/31 09:26:52;;;;;;;3.63;2.93;;;11.20;99.90;;;;;;5144542;27;20819;-67
2023/12/31 09:29:19;;;;;;;3.20;2.43;;;11.20;99.90;;;;;;5144116;27;20465;-68
2023/12/31 09:31:46;;;;;;;2.87;2.67;;;11.20;99.90;;;;;;5141610;27;20453;-66
2023/12/31 09:34:14;;;;;;;3.03;2.83;;;11.30;99.90;;;;;;5135825;27;20441;-67
2023/12/31 09:36:41;;;;;;;4.60;2.73;;;11.30;99.90;;;;;;5136310;27;20442;-67
2023/12/31 09:39:08;;;;;;;3.87;3.10;;;11.30;99.90;;;;;;5136816;27;20895;-67
2023/12/31 09:41:37;;;;;;;2.80;2.60;;;11.30;99.90;;;;;;5135980;27;20466;-67
2023/12/31 09:44:04;;;;;;;4.40;2.47;;;11.30;99.90;;;;;;5136513;27;20478;-66
2023/12/31 09:46:38;;;;;;;3.27;2.67;;;11.30;99.90;;;;;;5118196;27;20864;-66
2023/12/31 09:49:06;;;;;;;2.80;2.60;;;11.30;99.90;;;;;;5135975;27;20422;-66
2023/12/31 09:51:36;;;;;;;2.73;2.53;;;11.40;99.90;;;;;;5135945;27;20442;-67
2023/12/31 09:54:06;;;;;;;3.80;2.90;;;11.40;99.90;;;;;;5136299;27;20418;-67
2023/12/31 09:56:34;;;;;;;3.57;3.27;;;11.40;99.90;;;;;;5135801;27;20461;-66
2023/12/31 09:59:02;;;;;;;2.90;2.70;;;11.40;99.90;;;;;;5135989;27;20438;-67
2023/12/31 10:01:31;;;;;;;3.60;2.60;;;11.50;99.90;;;;;;5136087;27;20446;-67
2023/12/31 10:03:58;;;;;;;3.30;3.00;;;11.50;99.90;;;;;;5135752;27;20482;-66
2023/12/31 10:06:27;;;;;;;3.27;1.50;;;11.60;99.90;;;;;;5135877;27;20444;-66
2023/12/31 10:08:57;;;;;;;1.50;1.30;;;11.60;99.90;;;;;;5117078;27;20450;-68
2023/12/31 10:11:24;;;;;;;1.80;1.10;;;11.50;99.90;;;;;;5136192;27;20425;-66
2023/12/31 10:13:51;;;;;;;1.73;1.53;;;11.50;99.90;;;;;;5135674;27;20510;-66
2023/12/31 10:16:18;;;;;;;1.50;1.13;;;11.60;99.90;;;;;;5135600;27;20442;-66
2023/12/31 10:18:45;;;;;;;1.53;1.13;;;11.60;99.90;;;;;;5135594;27;20449;-66
2023/12/31 10:21:12;;;;;;;2.63;0.90;;;11.50;99.90;;;;;;5135434;27;20469;-67
2023/12/31 10:23:39;;;;;;;3.00;0.90;;;11.50;99.80;;;;;;5135441;27;20438;-67
2023/12/31 10:26:07;;;;;;;0.90;0.60;;;11.60;99.40;;;;;;5135472;27;20438;-68
2023/12/31 10:28:33;;;;;;;0.70;0.70;;;11.60;99.60;;;;;;5135328;27;20789;-67
2023/12/31 10:31:00;;;;;;;1.57;0.80;;;11.60;99.10;;;;;;5135253;27;20458;-67
2023/12/31 10:33:28;;;;;;;1.00;0.90;;;11.60;98.90;;;;;;5135196;27;20438;-67
2023/12/31 10:36:04;;;;;;;1.60;0.70;;;11.70;98.80;;;;;;5135191;27;20477;-68
2023/12/31 10:38:43;;;;;;;1.00;0.60;;;11.70;98.90;;;;;;5135571;27;20425;-72
2023/12/31 10:41:14;;;;;;;1.13;0.77;;;11.60;98.30;;;;;;5135326;27;20458;-71
2023/12/31 10:43:41;;;;;;;1.53;1.00;;;11.60;98.20;;;;;;5117137;27;20434;-67
2023/12/31 10:46:10;;;;;;;1.53;0.60;;;11.60;98.60;;;;;;5135214;27;20445;-67
2023/12/31 10:48:40;;;;;;;0.60;0.50;;;11.60;98.70;;;;;;5134980;27;20439;-67
2023/12/31 10:51:11;;;;;;;0.80;0.53;;;11.70;98.10;;;;;;5134922;27;20462;-67
2023/12/31 10:53:39;;;;;;;0.80;0.47;;;11.60;97.70;;;;;;5134560;27;20433;-67
2023/12/31 10:56:07;;;;;;;0.90;0.47;;;11.60;97.60;;;;;;5134622;27;20450;-68
2023/12/31 10:58:35;;;;;;;0.50;0.40;;;11.60;97.70;;;;;;5134747;27;20442;-67
2023/12/31 11:01:03;;;;;;;2.10;0.47;;;11.60;97.80;;;;;;5140643;27;20438;-67
2023/12/31 11:03:33;;;;;;;1.93;0.40;;;11.60;97.70;;;;;;5146278;27;20441;-68
2023/12/31 11:06:03;;;;;;;1.23;0.60;;;11.50;97.90;;;;;;5141042;27;20473;-67
2023/12/31 11:08:30;;;;;;;2.40;0.50;;;11.50;98.10;;;;;;5137414;27;20545;-67
2023/12/31 11:10:57;;;;;;;0.60;0.40;;;11.50;98.40;;;;;;5136912;27;20541;-67
2023/12/31 11:13:27;;;;;;;1.17;0.50;;;11.50;98.50;;;;;;5136451;27;20466;-67
2023/12/31 11:15:59;;;;;;;1.67;0.40;;;11.50;98.40;;;;;;5135697;27;20438;-67
2023/12/31 11:18:50;;;;;;;3.10;0.40;;;11.50;98.30;;;;;;5134879;27;20438;-67
2023/12/31 11:21:35;;;;;;;0.83;0.50;;;11.50;98.40;;;;;;5134745;27;20462;-67
2023/12/31 11:24:10;;;;;;;1.83;0.50;;;11.50;98.70;;;;;;5135118;27;20827;-68
2023/12/31 11:26:38;;;;;;;1.03;0.60;;;11.50;98.80;;;;;;5135196;28;20425;-68
2023/12/31 11:29:09;;;;;;;2.10;0.67;;;11.50;98.90;;;;;;5134926;27;20499;-68
2023/12/31 11:31:40;;;;;;;0.93;0.50;;;11.50;99.10;;;;;;5134688;28;20425;-68
2023/12/31 11:34:09;;;;;;;1.43;0.43;;;11.50;99.10;;;;;;5134349;28;20953;-68
2023/12/31 11:36:36;;;;;;;0.83;0.47;;;11.40;98.90;;;;;;5134655;28;20434;-68
2023/12/31 11:39:06;;;;;;;1.00;0.43;;;11.50;99.00;;;;;;5134336;28;20927;-69
2023/12/31 11:41:36;;;;;;;0.40;0.40;;;11.40;99.20;;;;;;5134249;28;20427;-69
2023/12/31 11:44:03;;;;;;;1.80;0.40;;;11.40;99.10;;;;;;5134232;28;20558;-69
2023/12/31 11:46:35;;;;;;;0.70;0.50;;;11.40;99.50;;;;;;5134352;28;20430;-68
2023/12/31 11:49:04;;;;;;;0.70;0.30;;;11.40;99.40;;;;;;5134309;28;20434;-69
2023/12/31 11:51:54;;;;;;;2.37;1.67;;;11.40;99.60;;;;;;5134523;28;20434;-69
2023/12/31 11:54:22;;;;;;;2.20;0.57;;;11.30;99.70;;;;;;5134300;28;20418;-69
2023/12/31 11:56:51;;;;;;;0.40;0.30;;;11.40;99.70;;;;;;5134176;28;20445;-69
2023/12/31 11:59:19;;;;;;;1.13;0.57;;;11.40;99.40;;;;;;5136567;27;20836;-69
2023/12/31 12:01:48;;;;;;;1.13;0.50;;;11.40;99.50;;;;;;5138777;27;20521;-69
2023/12/31 12:04:16;;;;;;;2.60;0.87;;;11.40;99.40;;;;;;5138171;27;20518;-69
2023/12/31 12:06:43;;;;;;;1.10;0.40;;;11.40;98.90;;;;;;5138251;27;20963;-69
2023/12/31 12:09:11;;;;;;;0.80;0.43;;;11.40;98.80;;;;;;5138134;27;20457;-69
2023/12/31 12:11:43;;;;;;;4.43;0.60;;;11.40;98.40;;;;;;5138102;27;20450;-69
2023/12/31 12:14:10;;;;;;;0.70;0.40;;;11.30;98.10;;;;;;5119818;27;20454;-69
2023/12/31 12:16:36;;;;;;;3.00;0.40;;;11.40;98.40;;;;;;5138166;27;20446;-69
2023/12/31 12:19:05;;;;;;;1.33;0.50;;;11.40;98.10;;;;;;5137922;27;20437;-70
2023/12/31 12:21:33;;;;;;;1.17;0.60;;;11.60;97.90;;;;;;5137943;27;20480;-69
2023/12/31 12:24:00;;;;;;;1.77;0.57;;;11.70;97.40;;;;;;5137910;27;20449;-69
2023/12/31 12:26:27;;;;;;;1.67;0.60;;;11.90;97.40;;;;;;5138042;27;20473;-69
2023/12/31 12:28:55;;;;;;;2.40;0.80;;;12.10;97.00;;;;;;5137844;27;20445;-69
2023/12/31 12:31:22;;;;;;;2.80;0.73;;;12.00;96.60;;;;;;5137955;27;20460;-73
2023/12/31 12:33:53;;;;;;;3.07;0.63;;;11.90;97.20;;;;;;5137852;27;20442;-71
2023/12/31 12:36:20;;;;;;;2.53;0.80;;;11.70;99.40;;;;;;5137903;27;20468;-73
2023/12/31 12:38:48;;;;;;;1.93;0.70;;;11.50;99.90;;;;;;5119318;27;20480;-65
2023/12/31 12:41:20;;;;;;;2.43;0.53;;;10.90;99.90;;;;;;5137402;27;21062;-65
2023/12/31 12:43:50;;;;;;;2.53;0.83;;;10.40;99.90;;;;;;5119440;27;20542;-65
2023/12/31 12:46:17;;;;;;;3.77;0.60;;;10.00;99.90;;;;;;5137536;27;20538;-66
2023/12/31 12:48:48;;;;;;;6.03;2.40;;;9.70;99.90;;;;;;5137498;27;20446;-66
2023/12/31 12:51:15;;;;;;;3.50;0.87;;;9.60;99.90;;;;;;5137117;27;20849;-66